Decoded Metar for LYPG (PODGORICA in SERBIA) (IATA:TGD) | Meteo·Mobile Aviation Weather
aviador You're here:

LYPG Decoded Metar

PODGORICA in SERBIA
Report Time2018-12-11 09:30:00
UTC Time2018-12-11 10:01:30
Flight Rules vfr VFR
Wind020° at 14 kt
W.Decomp.*RWY 36: 13.4 kt HW 4.1 kt RCW
W.Rank020° ranks 4
Current wind is above 020° avg. (8.1)
Visibility9999 m
Phenomena:N/A
Clouds:Few 040 Hf
Expected CloudBase > 7,200 ft AGL from Temp-Dew spread
CeilingNone
Temp09°C (ISA -6)
Dew Point-9°C (27% RH)
AAT1.0°C
QNH1016 hPa
Density Alt-600 ft
Elevation141 ft
Report Wrong Elevation
Raw Report
METAR LYPG 110930Z 02014KT 350V060 9999 FEW040 09/M09 Q1016 NOSIG=

Extra information for LYPG:More info

Metar Taf Metar & Taf Last 4 Metars F.Rules Stats Wind Profile Meteogram Temp Stats Airport Information Weather charts Add Link Nearby VenuesMetar ALERT Operation Metar Decoded Social comments